Time;durP1;ratioP1;P1;durP2;ratioP2;P2;SDS_P1;SDS_P2;PMS_P1;PMS_P2;Temp;Humidity;BMP_temperature;BMP_pressure;BME280_temperature;BME280_humidity;BME280_pressure;Samples;Min_cycle;Max_cycle;Signal;HPM_P1;HPM_P2
2023/01/06 00:01:21;;;;;;;10.90;1.85;;;;;;;9.84;100.00;101672.16;5051301;28;20099;-39
2023/01/06 00:03:51;;;;;;;11.88;1.65;;;;;;;9.82;100.00;101677.69;5051582;28;20080;-38
2023/01/06 00:06:16;;;;;;;5.60;1.92;;;;;;;9.80;100.00;101666.25;5051347;28;20032;-38
2023/01/06 00:08:42;;;;;;;9.65;1.92;;;;;;;9.81;100.00;101680.53;5051360;28;20037;-38
2023/01/06 00:11:09;;;;;;;5.18;1.60;;;;;;;9.79;100.00;101663.72;5051004;28;20056;-39
2023/01/06 00:13:35;;;;;;;5.90;1.67;;;;;;;9.79;100.00;101672.59;5051722;28;20079;-39
2023/01/06 00:16:12;;;;;;;15.93;2.28;;;;;;;9.79;100.00;101669.09;5051312;28;20613;-38
2023/01/06 00:18:38;;;;;;;7.68;1.90;;;;;;;9.79;100.00;101669.91;5050952;28;20048;-39
2023/01/06 00:21:04;;;;;;;12.35;2.10;;;;;;;9.80;100.00;101681.53;5051125;28;20484;-39
2023/01/06 00:23:29;;;;;;;9.07;2.30;;;;;;;9.79;100.00;101675.28;5050686;28;20032;-38
2023/01/06 00:25:55;;;;;;;11.15;2.50;;;;;;;9.81;100.00;101667.09;5050857;28;20055;-36
2023/01/06 00:28:20;;;;;;;9.55;2.42;;;;;;;9.82;100.00;101669.63;5051298;28;20028;-37
2023/01/06 00:30:45;;;;;;;7.20;2.40;;;;;;;9.81;100.00;101667.94;5050921;28;20052;-39
2023/01/06 00:33:10;;;;;;;9.63;2.58;;;;;;;9.84;100.00;101666.78;5050582;28;20076;-37
2023/01/06 00:35:36;;;;;;;5.60;2.40;;;;;;;9.82;100.00;101658.88;5050786;28;20065;-38
2023/01/06 00:38:02;;;;;;;10.25;2.58;;;;;;;9.79;100.00;101658.31;5050996;28;20039;-36
2023/01/06 00:40:27;;;;;;;10.85;2.85;;;;;;;9.77;100.00;101650.44;5050434;28;20325;-39
2023/01/06 00:42:53;;;;;;;9.23;2.45;;;;;;;9.77;100.00;101655.81;5050668;28;20033;-37
2023/01/06 00:45:18;;;;;;;6.68;2.17;;;;;;;9.73;100.00;101649.06;5050632;28;20033;-38
2023/01/06 00:47:44;;;;;;;11.73;2.40;;;;;;;9.76;100.00;101646.03;5050777;28;20534;-36
2023/01/06 00:50:09;;;;;;;10.52;2.33;;;;;;;9.75;100.00;101647.06;5050491;28;20428;-39
2023/01/06 00:52:35;;;;;;;9.10;2.00;;;;;;;9.74;100.00;101640.00;5050457;28;20057;-38
2023/01/06 00:55:00;;;;;;;11.93;2.65;;;;;;;9.75;100.00;101639.00;5050357;28;20029;-39
2023/01/06 00:57:26;;;;;;;9.68;2.20;;;;;;;9.79;100.00;101634.97;5051342;28;20025;-39
2023/01/06 00:59:51;;;;;;;12.23;2.70;;;;;;;9.80;100.00;101628.63;5050109;28;20163;-40
2023/01/06 01:02:16;;;;;;;6.50;2.67;;;;;;;9.79;100.00;101626.91;5050767;28;20152;-40
2023/01/06 01:04:42;;;;;;;9.02;2.53;;;;;;;9.82;100.00;101636.50;5050384;28;20102;-37
2023/01/06 01:07:07;;;;;;;10.73;2.85;;;;;;;9.82;100.00;101621.25;5049956;28;20052;-36
2023/01/06 01:09:33;;;;;;;6.35;1.75;;;;;;;9.82;100.00;101620.38;5050240;28;20029;-39
2023/01/06 01:12:11;;;;;;;9.20;2.38;;;;;;;9.83;100.00;101616.69;5050096;28;20032;-37
2023/01/06 01:14:41;;;;;;;9.35;2.67;;;;;;;9.84;100.00;101613.00;5050021;28;20031;-36
2023/01/06 01:17:07;;;;;;;5.85;2.28;;;;;;;9.82;100.00;101610.47;5050019;28;20472;-37
2023/01/06 01:19:33;;;;;;;6.88;2.70;;;;;;;9.83;100.00;101593.34;5050062;28;20033;-37
2023/01/06 01:21:58;;;;;;;10.95;2.92;;;;;;;9.84;100.00;101591.50;5050037;28;20025;-37
2023/01/06 01:24:24;;;;;;;9.80;3.20;;;;;;;9.81;100.00;101598.03;5050499;28;20033;-39
2023/01/06 01:26:49;;;;;;;10.57;3.10;;;;;;;9.80;100.00;101596.34;5050111;28;20679;-37
2023/01/06 01:29:16;;;;;;;8.52;2.90;;;;;;;9.77;100.00;101591.28;5049982;28;20056;-39
2023/01/06 01:31:41;;;;;;;9.60;2.72;;;;;;;9.77;100.00;101588.59;5049631;28;20056;-39
2023/01/06 01:34:08;;;;;;;7.55;2.97;;;;;;;9.74;100.00;101580.88;5050360;28;20097;-38
2023/01/06 01:36:33;;;;;;;12.98;3.08;;;;;;;9.73;100.00;101579.16;5050617;28;20387;-38
2023/01/06 01:38:59;;;;;;;8.63;2.72;;;;;;;9.72;100.00;101574.81;5054229;28;20457;-39
2023/01/06 01:41:25;;;;;;;6.85;2.90;;;;;;;9.77;100.00;101563.53;5054150;28;20162;-37
2023/01/06 01:44:21;;;;;;;10.63;3.75;;;;;;;9.78;100.00;101549.97;5054074;28;20029;-37
2023/01/06 01:46:47;;;;;;;6.18;2.15;;;;;;;9.79;100.00;101551.63;5053660;28;20087;-36
2023/01/06 01:49:17;;;;;;;11.82;2.70;;;;;;;9.81;100.00;101538.03;5053964;28;20037;-37
2023/01/06 01:51:44;;;;;;;7.38;2.60;;;;;;;9.82;100.00;101535.22;5052403;28;20060;-40
2023/01/06 01:54:12;;;;;;;9.18;2.30;;;;;;;9.81;100.00;101552.31;5054164;28;20341;-37
2023/01/06 01:56:44;;;;;;;8.63;2.70;;;;;;;9.83;100.00;101542.25;5052429;28;20021;-36
2023/01/06 01:59:15;;;;;;;5.63;2.20;;;;;;;9.82;100.00;101545.09;5052493;28;20044;-36
2023/01/06 02:01:40;;;;;;;8.38;2.30;;;;;;;9.81;100.00;101538.88;5052473;28;20132;-39
2023/01/06 02:04:06;;;;;;;6.78;2.47;;;;;;;9.78;100.00;101543.75;5053675;28;20032;-37
2023/01/06 02:06:32;;;;;;;6.85;2.53;;;;;;;9.77;100.00;101536.66;5053238;28;20506;-38
2023/01/06 02:09:28;;;;;;;4.82;2.22;;;;;;;9.76;100.00;101533.13;5053466;28;20188;-38
2023/01/06 02:11:55;;;;;;;5.43;2.40;;;;;;;9.74;100.00;101524.41;5053301;28;20025;-38
2023/01/06 02:14:23;;;;;;;8.57;2.65;;;;;;;9.73;100.00;101519.19;5053357;28;20278;-38
2023/01/06 02:17:06;;;;;;;5.55;2.22;;;;;;;9.69;100.00;101518.69;5053293;28;20079;-37
2023/01/06 02:19:46;;;;;;;6.32;2.47;;;;;;;9.66;100.00;101529.72;5053260;28;20025;-38
2023/01/06 02:22:30;;;;;;;7.63;2.30;;;;;;;9.62;100.00;101520.31;5053242;28;20550;-39
2023/01/06 02:25:12;;;;;;;9.20;2.30;;;;;;;9.62;100.00;101534.59;5053196;28;20104;-37
2023/01/06 02:27:47;;;;;;;6.55;2.45;;;;;;;9.63;100.00;101519.28;5051968;28;20031;-39
2023/01/06 02:30:38;;;;;;;8.73;2.22;;;;;;;9.61;100.00;101505.16;5053195;28;20025;-37
2023/01/06 02:33:04;;;;;;;3.60;2.20;;;;;;;9.62;100.00;101502.31;5051415;28;20049;-39
2023/01/06 02:35:48;;;;;;;7.10;2.03;;;;;;;9.63;100.00;101495.09;5052857;28;20025;-38
2023/01/06 02:38:28;;;;;;;8.57;1.92;;;;;;;9.62;100.00;101478.13;5051484;28;20066;-39
2023/01/06 02:41:11;;;;;;;10.75;1.88;;;;;;;9.63;100.00;101473.59;5053149;28;20029;-39
2023/01/06 02:44:11;;;;;;;7.38;1.80;;;;;;;9.62;100.00;101467.38;5052882;28;20135;-37
2023/01/06 02:46:46;;;;;;;6.22;1.70;;;;;;;9.63;100.00;101462.84;5052013;28;20575;-37
2023/01/06 02:49:24;;;;;;;4.75;1.63;;;;;;;9.63;100.00;101473.59;5051587;28;20024;-36
2023/01/06 02:52:06;;;;;;;6.05;1.77;;;;;;;9.65;100.00;101452.78;5051178;28;20078;-39
2023/01/06 02:54:40;;;;;;;7.30;1.48;;;;;;;9.66;100.00;101465.22;5052659;28;20025;-37
2023/01/06 02:57:11;;;;;;;5.18;1.60;;;;;;;9.66;100.00;101467.91;5051428;28;20021;-36
2023/01/06 02:59:43;;;;;;;8.55;1.55;;;;;;;9.66;100.00;101457.16;5052542;28;20032;-37
2023/01/06 03:02:10;;;;;;;8.68;1.90;;;;;;;9.70;100.00;101457.69;5051246;28;20029;-37
2023/01/06 03:04:40;;;;;;;14.60;2.40;;;;;;;9.67;100.00;101448.09;5052459;28;20090;-39
2023/01/06 03:07:06;;;;;;;6.10;2.10;;;;;;;9.68;100.00;101449.78;5050900;28;20671;-39
2023/01/06 03:09:36;;;;;;;5.20;1.77;;;;;;;9.65;100.00;101436.66;5052396;28;20112;-37
2023/01/06 03:12:07;;;;;;;5.05;1.40;;;;;;;9.64;100.00;101440.38;5050968;28;20139;-39
2023/01/06 03:14:38;;;;;;;6.43;1.48;;;;;;;9.63;100.00;101441.34;5051119;28;20029;-37
2023/01/06 03:17:03;;;;;;;8.88;1.70;;;;;;;9.64;100.00;101451.13;5050928;28;20021;-39
2023/01/06 03:19:30;;;;;;;10.18;1.83;;;;;;;9.63;100.00;101444.03;5052149;28;20021;-38
2023/01/06 03:21:55;;;;;;;6.50;1.50;;;;;;;9.65;100.00;101431.28;5050956;28;20136;-36
2023/01/06 03:24:21;;;;;;;10.70;1.70;;;;;;;9.63;100.00;101417.16;5052114;28;20124;-37
2023/01/06 03:26:47;;;;;;;6.20;1.73;;;;;;;9.61;100.00;101413.78;5052577;28;20489;-36
2023/01/06 03:29:15;;;;;;;5.40;1.55;;;;;;;9.62;100.00;101415.50;5051884;28;20376;-37
2023/01/06 03:31:49;;;;;;;;;;;;;;;9.62;100.00;101421.69;5050862;28;20052;-37
2023/01/06 03:34:34;;;;;;;9.02;1.70;;;;;;;9.62;100.00;101407.44;5051959;28;19923;-34
2023/01/06 03:37:00;;;;;;;4.10;1.70;;;;;;;9.64;100.00;101418.88;5051944;28;20032;-38
2023/01/06 03:39:38;;;;;;;4.70;1.58;;;;;;;9.66;100.00;101414.16;5051765;28;20029;-40
2023/01/06 03:45:44;;;;;;;6.85;1.70;;;;;;;9.67;100.00;101413.16;5051132;28;20031;-37
2023/01/06 03:48:44;;;;;;;5.10;2.15;;;;;;;9.70;100.00;101410.16;5051596;28;20086;-38
2023/01/06 03:51:36;;;;;;;6.90;1.80;;;;;;;9.70;100.00;101396.72;5051585;28;20028;-39
2023/01/06 03:54:22;;;;;;;7.53;1.88;;;;;;;9.71;100.00;101398.38;5051999;28;20033;-39
2023/01/06 03:56:54;;;;;;;4.35;1.88;;;;;;;9.71;100.00;101387.63;5051967;28;20037;-39
2023/01/06 03:59:23;;;;;;;8.48;2.20;;;;;;;9.71;100.00;101394.84;5050409;28;20052;-36
2023/01/06 04:01:48;;;;;;;11.18;1.98;;;;;;;9.73;100.00;101396.38;5050090;28;20056;-38
2023/01/06 04:04:15;;;;;;;9.63;1.95;;;;;;;9.76;100.00;101387.16;5051461;28;20044;-34
2023/01/06 04:06:41;;;;;;;6.93;2.20;;;;;;;9.77;100.00;101386.13;5049914;28;20033;-38
2023/01/06 04:09:06;;;;;;;8.00;1.67;;;;;;;9.77;100.00;101394.19;5051651;28;20032;-37
2023/01/06 04:14:15;;;;;;;8.05;1.80;;;;;;;9.81;100.00;101377.59;5051207;28;20569;-39
2023/01/06 04:16:41;;;;;;;8.95;1.83;;;;;;;9.83;100.00;101372.88;5051270;28;20108;-38
2023/01/06 04:19:06;;;;;;;7.72;1.75;;;;;;;9.78;100.00;101367.16;5051061;28;20112;-39
2023/01/06 04:21:31;;;;;;;3.80;1.45;;;;;;;9.76;100.00;101368.31;5051270;28;20112;-39
2023/01/06 04:23:57;;;;;;;6.65;2.03;;;;;;;9.77;100.00;101360.13;5049617;28;20056;-38
2023/01/06 04:26:22;;;;;;;6.28;1.90;;;;;;;9.78;100.00;101372.53;5050562;28;20117;-37
2023/01/06 04:28:47;;;;;;;5.65;1.75;;;;;;;9.82;100.00;101364.97;5050957;28;20110;-39
2023/01/06 04:31:12;;;;;;;4.50;1.58;;;;;;;9.82;100.00;101373.03;5050026;28;20479;-37
2023/01/06 04:33:38;;;;;;;3.33;1.80;;;;;;;9.82;100.00;101357.78;5050532;28;20447;-39
2023/01/06 04:36:04;;;;;;;4.47;1.25;;;;;;;9.84;100.00;101365.66;5050816;28;20503;-39
2023/01/06 04:38:29;;;;;;;6.75;1.50;;;;;;;9.83;100.00;101367.50;5050766;28;20025;-36
2023/01/06 04:40:54;;;;;;;8.98;1.90;;;;;;;9.78;100.00;101377.06;5050776;28;20404;-36
2023/01/06 04:43:20;;;;;;;9.20;2.00;;;;;;;9.66;100.00;101380.06;5049251;28;20086;-37
2023/01/06 04:45:45;;;;;;;6.25;1.50;;;;;;;9.54;100.00;101367.09;5050683;28;20107;-37
2023/01/06 04:48:11;;;;;;;5.50;2.17;;;;;;;9.42;100.00;101377.28;5050722;28;20052;-37
2023/01/06 04:50:37;;;;;;;7.85;1.83;;;;;;;9.34;100.00;101380.75;5050512;28;20029;-36
2023/01/06 04:53:03;;;;;;;4.00;2.20;;;;;;;9.30;100.00;101368.66;5049179;28;20051;-36
2023/01/06 04:55:29;;;;;;;5.72;1.92;;;;;;;9.26;100.00;101366.47;5050554;28;20443;-39
2023/01/06 04:57:54;;;;;;;6.05;2.05;;;;;;;9.24;100.00;101374.66;5050654;28;20111;-37
2023/01/06 05:00:20;;;;;;;11.98;2.30;;;;;;;9.22;100.00;101365.94;5050391;28;20039;-38
2023/01/06 05:02:45;;;;;;;7.07;2.17;;;;;;;9.22;100.00;101374.84;5050435;28;20116;-36
2023/01/06 05:05:11;;;;;;;5.70;2.05;;;;;;;9.21;100.00;101369.63;5050334;28;20072;-38
2023/01/06 05:07:36;;;;;;;12.13;2.30;;;;;;;9.23;100.00;101373.81;5050349;28;20036;-39
2023/01/06 05:10:03;;;;;;;5.57;2.00;;;;;;;9.22;100.00;101361.41;5050293;28;20021;-36
2023/01/06 05:12:30;;;;;;;7.95;2.15;;;;;;;9.21;100.00;101373.13;5050537;28;20036;-39
2023/01/06 05:14:56;;;;;;;7.72;2.70;;;;;;;9.18;100.00;101380.69;5050262;28;20067;-36
2023/01/06 05:17:21;;;;;;;7.93;2.20;;;;;;;9.16;100.00;101377.31;5050334;28;20052;-35
2023/01/06 05:19:46;;;;;;;9.35;2.45;;;;;;;9.15;100.00;101375.63;5049924;28;20127;-39
2023/01/06 05:22:12;;;;;;;3.85;2.13;;;;;;;9.14;100.00;101380.19;5050279;28;20029;-37
2023/01/06 05:24:37;;;;;;;9.75;2.58;;;;;;;9.14;100.00;101382.03;5049905;28;20029;-36
2023/01/06 05:27:03;;;;;;;4.15;2.05;;;;;;;9.15;100.00;101397.13;5050189;28;20027;-39
2023/01/06 05:29:28;;;;;;;7.72;2.47;;;;;;;9.17;100.00;101400.50;5049948;28;20108;-38
2023/01/06 05:31:54;;;;;;;6.63;2.42;;;;;;;9.16;100.00;101380.88;5049906;28;20036;-37
2023/01/06 05:34:19;;;;;;;5.15;2.70;;;;;;;9.16;100.00;101382.69;5050169;28;20430;-35
2023/01/06 05:36:44;;;;;;;6.28;2.65;;;;;;;9.15;100.00;101389.06;5049806;28;20154;-36
2023/01/06 05:39:10;;;;;;;7.90;2.20;;;;;;;9.16;100.00;101388.91;5050125;28;20021;-36
2023/01/06 05:41:35;;;;;;;7.18;3.00;;;;;;;9.15;100.00;101389.91;5050062;28;20112;-39
2023/01/06 05:44:00;;;;;;;6.50;2.58;;;;;;;9.16;100.00;101404.16;5049927;28;20377;-39
2023/01/06 05:46:26;;;;;;;7.30;3.00;;;;;;;9.16;100.00;101388.91;5049819;28;20059;-42
2023/01/06 05:48:51;;;;;;;5.65;2.55;;;;;;;9.14;100.00;101388.22;5049698;28;20021;-39
2023/01/06 05:51:16;;;;;;;16.27;3.33;;;;;;;9.15;100.00;101413.22;5049872;28;20357;-40
2023/01/06 05:53:44;;;;;;;5.53;2.70;;;;;;;9.17;100.00;101403.19;5049818;28;20036;-39
2023/01/06 05:56:11;;;;;;;8.73;2.97;;;;;;;9.17;100.00;101413.94;5049871;28;20112;-39
2023/01/06 05:58:39;;;;;;;5.30;2.63;;;;;;;9.16;100.00;101407.72;5048589;28;20056;-40
2023/01/06 06:01:05;;;;;;;6.00;2.65;;;;;;;9.18;100.00;101421.81;5049603;28;20337;-40
2023/01/06 06:03:31;;;;;;;6.25;2.50;;;;;;;9.19;100.00;101423.50;5049632;28;20025;-39
2023/01/06 06:06:02;;;;;;;4.68;2.45;;;;;;;9.21;100.00;101426.00;5049415;28;20124;-39
2023/01/06 06:08:28;;;;;;;8.98;3.10;;;;;;;9.21;100.00;101434.06;5049594;28;20025;-40
2023/01/06 06:10:53;;;;;;;4.57;2.90;;;;;;;9.19;100.00;101455.75;5049508;28;20032;-41
2023/01/06 06:13:18;;;;;;;14.23;3.08;;;;;;;9.20;100.00;101456.56;5049514;28;20432;-41
2023/01/06 06:15:44;;;;;;;10.98;3.00;;;;;;;9.21;100.00;101466.31;5049331;28;20032;-41
2023/01/06 06:18:09;;;;;;;7.57;3.08;;;;;;;9.21;100.00;101477.03;5049213;28;20083;-41
2023/01/06 06:20:34;;;;;;;8.88;2.97;;;;;;;9.22;100.00;101484.13;5049364;28;20193;-42
2023/01/06 06:23:00;;;;;;;4.75;3.15;;;;;;;9.24;100.00;101490.16;5034259;28;20040;-43
2023/01/06 06:25:25;;;;;;;9.30;3.45;;;;;;;9.21;100.00;101479.72;5053174;28;20041;-43
2023/01/06 06:27:50;;;;;;;5.93;3.05;;;;;;;9.20;100.00;101470.00;5053171;28;20025;-42
2023/01/06 06:30:16;;;;;;;10.85;3.60;;;;;;;9.19;100.00;101484.44;5053032;28;20025;-41
2023/01/06 06:32:41;;;;;;;11.43;3.60;;;;;;;9.19;100.00;101484.44;5052857;28;20048;-42
2023/01/06 06:35:07;;;;;;;18.27;3.97;;;;;;;9.19;100.00;101484.44;5051754;28;20032;-41
2023/01/06 06:37:32;;;;;;;12.10;3.00;;;;;;;9.18;100.00;101488.09;5052692;28;20033;-41
2023/01/06 06:39:57;;;;;;;18.08;3.10;;;;;;;9.16;100.00;101490.97;5052640;28;20095;-39
2023/01/06 06:42:23;;;;;;;23.67;3.10;;;;;;;9.14;100.00;101489.44;5052779;28;20044;-39
2023/01/06 06:44:48;;;;;;;17.98;2.80;;;;;;;9.14;100.00;101492.13;5052765;28;20033;-37
2023/01/06 06:47:14;;;;;;;14.50;2.97;;;;;;;9.14;100.00;101519.81;5052682;28;20024;-37
2023/01/06 06:49:40;;;;;;;15.23;2.83;;;;;;;9.14;100.00;101518.97;5052664;28;20029;-39
2023/01/06 06:52:05;;;;;;;17.63;2.95;;;;;;;9.14;100.00;101510.91;5051537;28;20503;-42
2023/01/06 06:54:30;;;;;;;18.35;3.00;;;;;;;9.12;100.00;101518.28;5052973;28;20060;-41
2023/01/06 06:56:56;;;;;;;22.90;3.20;;;;;;;9.11;100.00;101524.63;5052849;28;20033;-42
2023/01/06 06:59:21;;;;;;;22.88;3.13;;;;;;;9.08;100.00;101527.63;5053002;28;20032;-41
2023/01/06 07:01:46;;;;;;;22.33;2.70;;;;;;;9.08;100.00;101538.38;5052445;28;20051;-41
2023/01/06 07:04:12;;;;;;;30.23;3.25;;;;;;;9.08;100.00;101530.31;5052424;28;20044;-40
2023/01/06 07:06:37;;;;;;;21.65;2.70;;;;;;;9.06;100.00;101522.44;5052326;28;20025;-37
2023/01/06 07:09:02;;;;;;;25.50;3.25;;;;;;;9.06;100.00;101533.19;5052746;28;20112;-40
2023/01/06 07:11:28;;;;;;;29.80;3.55;;;;;;;9.05;100.00;101530.63;5052093;28;20040;-40
2023/01/06 07:13:54;;;;;;;31.80;3.20;;;;;;;9.04;100.00;101539.69;5051214;28;20031;-39
2023/01/06 07:16:22;;;;;;;34.67;3.53;;;;;;;8.99;100.00;101532.94;5052222;28;20101;-39
2023/01/06 07:18:47;;;;;;;29.02;3.00;;;;;;;8.97;100.00;101539.47;5052163;28;20017;-39
2023/01/06 07:21:12;;;;;;;35.80;3.03;;;;;;;8.95;100.00;101545.00;5052310;28;20039;-38
2023/01/06 07:23:38;;;;;;;34.53;3.40;;;;;;;8.93;100.00;101544.31;5052747;28;20116;-36
2023/01/06 07:26:03;;;;;;;41.55;4.18;;;;;;;8.89;100.00;101556.34;5052570;28;20021;-37
2023/01/06 07:28:30;;;;;;;33.17;2.78;;;;;;;8.86;100.00;101558.50;5051893;28;20476;-38
2023/01/06 07:30:56;;;;;;;35.97;3.28;;;;;;;8.81;100.00;101556.25;5051864;28;20016;-36
2023/01/06 07:33:21;;;;;;;43.65;3.20;;;;;;;8.75;100.00;101563.09;5050625;28;20095;-39
2023/01/06 07:35:46;;;;;;;28.15;2.65;;;;;;;8.67;100.00;101564.84;5051880;28;20037;-36
2023/01/06 07:38:12;;;;;;;24.63;3.13;;;;;;;8.59;100.00;101562.09;5051614;28;20018;-36
2023/01/06 07:40:37;;;;;;;23.70;2.53;;;;;;;8.51;100.00;101566.34;5051779;28;20051;-38
2023/01/06 07:43:07;;;;;;;31.85;2.50;;;;;;;8.42;100.00;101564.56;5051689;28;20031;-39
2023/01/06 07:45:32;;;;;;;24.35;2.42;;;;;;;8.37;100.00;101566.81;5051820;28;20025;-39
2023/01/06 07:47:58;;;;;;;18.25;3.15;;;;;;;8.28;100.00;101549.78;5051333;28;20107;-39
2023/01/06 07:50:24;;;;;;;19.90;2.30;;;;;;;8.23;100.00;101552.06;5051822;28;20039;-38
2023/01/06 07:52:49;;;;;;;17.73;2.13;;;;;;;8.20;100.00;101551.53;5051728;28;20053;-39
2023/01/06 07:55:15;;;;;;;20.77;2.00;;;;;;;8.17;100.00;101541.13;5051287;28;20075;-38
2023/01/06 07:57:40;;;;;;;15.45;2.00;;;;;;;8.14;100.00;101542.25;5051282;28;20025;-38
2023/01/06 08:00:06;;;;;;;15.48;2.08;;;;;;;8.12;100.00;101545.06;5051524;28;20444;-39
2023/01/06 08:02:31;;;;;;;24.15;1.83;;;;;;;8.06;100.00;101543.00;5051819;28;20132;-37
2023/01/06 08:04:57;;;;;;;22.63;2.30;;;;;;;8.06;100.00;101545.69;5052378;28;20027;-39
2023/01/06 08:07:22;;;;;;;15.60;2.05;;;;;;;8.05;100.00;101559.22;5051141;28;20041;-41
2023/01/06 08:09:47;;;;;;;27.35;2.33;;;;;;;8.02;100.00;101565.72;5051556;28;20025;-37
2023/01/06 08:12:13;;;;;;;23.88;2.13;;;;;;;8.02;100.00;101570.25;5051451;28;20025;-39
2023/01/06 08:14:38;;;;;;;15.20;1.63;;;;;;;7.99;100.00;101573.22;5051306;28;20472;-39
2023/01/06 08:17:04;;;;;;;15.10;2.08;;;;;;;8.00;100.00;101583.78;5049331;28;20071;-37
2023/01/06 08:19:29;;;;;;;22.20;1.85;;;;;;;8.00;100.00;101586.47;5049438;28;20028;-36
2023/01/06 08:21:54;;;;;;;13.23;1.60;;;;;;;8.02;100.00;101597.88;5050906;28;20082;-38
2023/01/06 08:24:20;;;;;;;16.25;1.60;;;;;;;8.07;100.00;101592.94;5050733;28;20021;-39
2023/01/06 08:26:45;;;;;;;12.52;1.27;;;;;;;8.22;100.00;101597.84;5050989;28;20106;-38
2023/01/06 08:29:10;;;;;;;11.93;1.40;;;;;;;8.46;100.00;101605.38;5051026;28;20087;-37
2023/01/06 08:31:36;;;;;;;12.02;1.20;;;;;;;8.83;100.00;101607.97;5050714;28;20464;-38
2023/01/06 08:34:01;;;;;;;17.73;1.55;;;;;;;9.26;100.00;101609.03;5050715;28;20487;-39
2023/01/06 08:36:26;;;;;;;12.15;1.20;;;;;;;9.61;100.00;101596.53;5050606;28;20067;-36
2023/01/06 08:38:52;;;;;;;14.60;1.45;;;;;;;9.82;100.00;101590.81;5051208;28;20027;-39
2023/01/06 08:41:18;;;;;;;14.25;1.52;;;;;;;10.03;100.00;101579.66;5050876;28;20519;-39
2023/01/06 08:43:44;;;;;;;11.57;1.42;;;;;;;10.18;100.00;101588.81;5050537;28;20132;-37
2023/01/06 08:46:12;;;;;;;9.90;1.45;;;;;;;10.21;100.00;101577.72;5050137;28;20025;-36
2023/01/06 08:48:38;;;;;;;;;;;;;;;10.40;100.00;101583.88;5049581;28;20029;-39
2023/01/06 08:51:05;;;;;;;19.33;1.73;;;;;;;10.52;100.00;101591.50;5050572;28;19909;-38
2023/01/06 08:53:31;;;;;;;12.00;1.60;;;;;;;10.85;100.00;101588.03;5050350;28;20036;-38
2023/01/06 08:55:56;;;;;;;9.85;1.55;;;;;;;11.04;100.00;101595.00;5050337;28;20024;-39
2023/01/06 08:58:21;;;;;;;11.88;1.58;;;;;;;11.15;100.00;101586.59;5050134;28;20028;-37
2023/01/06 09:00:47;;;;;;;18.52;1.67;;;;;;;11.15;100.00;101592.81;5050306;28;20031;-39
2023/01/06 09:03:12;;;;;;;12.20;1.35;;;;;;;11.28;100.00;101599.56;5050297;28;20373;-39
2023/01/06 09:05:38;;;;;;;19.48;2.47;;;;;;;11.17;100.00;101585.41;5050613;28;20067;-37
2023/01/06 09:08:03;;;;;;;15.73;1.90;;;;;;;11.02;100.00;101597.84;5050296;28;20367;-39
2023/01/06 09:10:29;;;;;;;11.35;1.55;;;;;;;11.11;100.00;101601.38;5050239;28;20028;-37
2023/01/06 09:12:54;;;;;;;15.30;1.85;;;;;;;10.87;100.00;101599.50;5050116;28;20040;-36
2023/01/06 09:15:19;;;;;;;11.50;1.52;;;;;;;10.90;100.00;101593.78;5050128;28;20029;-39
2023/01/06 09:17:45;;;;;;;18.67;1.90;;;;;;;10.95;100.00;101592.31;5048820;28;20032;-37
2023/01/06 09:20:10;;;;;;;13.55;1.65;;;;;;;10.94;100.00;101600.53;5050099;28;20433;-37
2023/01/06 09:22:36;;;;;;;13.40;1.95;;;;;;;10.89;100.00;101603.72;5050284;28;20037;-36
2023/01/06 09:25:01;;;;;;;15.43;2.03;;;;;;;10.92;100.00;101611.47;5049812;28;20252;-38
2023/01/06 09:27:27;;;;;;;17.15;1.73;;;;;;;11.19;100.00;101623.81;5050098;28;20036;-39
2023/01/06 09:29:52;;;;;;;15.25;1.73;;;;;;;11.56;100.00;101611.69;5049969;28;20067;-40
2023/01/06 09:32:17;;;;;;;9.23;1.70;;;;;;;11.84;100.00;101612.13;5049731;28;20025;-37
2023/01/06 09:34:43;;;;;;;14.27;1.88;;;;;;;11.95;100.00;101608.28;5049973;28;20037;-39
2023/01/06 09:37:08;;;;;;;15.35;1.70;;;;;;;12.04;100.00;101619.91;5049933;28;20100;-36
2023/01/06 09:39:35;;;;;;;15.63;2.20;;;;;;;12.44;100.00;101627.00;5049974;28;20029;-39
2023/01/06 09:42:28;;;;;;;13.13;1.40;;;;;;;12.05;100.00;101621.56;5050187;28;20466;-36
2023/01/06 09:44:56;;;;;;;11.32;1.40;;;;;;;12.04;100.00;101623.44;5049464;28;20037;-37
2023/01/06 09:47:29;;;;;;;15.55;1.70;;;;;;;12.05;100.00;101624.28;5049911;28;20025;-36
2023/01/06 09:50:02;;;;;;;15.25;1.70;;;;;;;12.28;100.00;101621.69;5048171;28;20537;-38
2023/01/06 09:52:32;;;;;;;8.18;1.25;;;;;;;12.71;100.00;101627.56;5048746;28;20021;-38
2023/01/06 09:55:02;;;;;;;10.70;1.52;;;;;;;12.45;100.00;101625.16;5049568;28;20035;-38
2023/01/06 09:57:44;;;;;;;12.50;1.40;;;;;;;12.66;100.00;101621.84;5050255;28;20025;-37
2023/01/06 10:00:41;;;;;;;11.65;1.33;;;;;;;12.17;100.00;101632.84;5052100;28;20091;-38
2023/01/06 10:03:24;;;;;;;12.55;1.65;;;;;;;12.26;100.00;101634.50;5052336;28;20113;-39
2023/01/06 10:06:11;;;;;;;11.13;1.42;;;;;;;12.38;100.00;101641.22;5052176;28;20025;-38
2023/01/06 10:09:13;;;;;;;19.55;1.60;;;;;;;12.23;100.00;101635.69;5053675;28;20106;-37
2023/01/06 10:12:00;;;;;;;14.90;1.58;;;;;;;12.23;100.00;101646.50;5053377;28;20086;-36
2023/01/06 10:14:39;;;;;;;9.10;1.25;;;;;;;12.38;100.00;101654.72;5052159;28;20036;-37
2023/01/06 10:17:17;;;;;;;12.07;2.72;;;;;;;11.85;100.00;101654.31;5053406;28;20399;-36
2023/01/06 10:20:20;;;;;;;12.55;1.50;;;;;;;11.52;100.00;101661.56;5053203;28;20104;-39
2023/01/06 10:23:08;;;;;;;12.43;1.70;;;;;;;11.48;100.00;101654.81;5054118;28;20052;-39
2023/01/06 10:25:38;;;;;;;12.93;1.80;;;;;;;11.25;100.00;101659.19;5053777;28;20056;-37
2023/01/06 10:28:29;;;;;;;11.20;1.98;;;;;;;11.12;100.00;101652.41;5053319;28;20040;-39
2023/01/06 10:30:58;;;;;;;16.80;1.50;;;;;;;11.11;100.00;101664.22;5035055;28;20017;-36
2023/01/06 10:33:24;;;;;;;7.72;1.10;;;;;;;11.05;100.00;101656.78;5052944;28;20045;-36
2023/01/06 10:35:50;;;;;;;13.80;1.25;;;;;;;11.25;100.00;101651.09;5052634;28;20112;-39
2023/01/06 10:38:17;;;;;;;15.05;1.65;;;;;;;11.41;100.00;101660.03;5052818;28;20063;-39
2023/01/06 10:40:43;;;;;;;9.20;1.60;;;;;;;11.50;100.00;101657.34;5051475;28;20094;-39
2023/01/06 10:43:10;;;;;;;10.50;1.67;;;;;;;11.47;100.00;101655.81;5051446;28;20025;-37
2023/01/06 10:45:39;;;;;;;11.40;1.63;;;;;;;11.43;100.00;101658.03;5051584;28;20059;-39
2023/01/06 10:48:09;;;;;;;9.65;1.42;;;;;;;11.64;100.00;101657.53;5051429;28;20171;-36
2023/01/06 10:50:34;;;;;;;13.43;1.38;;;;;;;11.90;100.00;101645.75;5052728;28;20083;-37
2023/01/06 10:52:59;;;;;;;10.40;1.23;;;;;;;12.14;100.00;101652.06;5052746;28;20028;-38
2023/01/06 10:55:25;;;;;;;10.90;1.25;;;;;;;12.20;100.00;101649.53;5052508;28;20033;-39
2023/01/06 10:57:51;;;;;;;10.95;1.60;;;;;;;12.14;100.00;101652.06;5052855;28;20053;-36
2023/01/06 11:00:22;;;;;;;13.70;1.75;;;;;;;12.05;100.00;101646.69;5034246;28;20064;-38
2023/01/06 11:02:50;;;;;;;13.27;1.80;;;;;;;11.77;100.00;101648.91;5051365;28;20021;-39
2023/01/06 11:05:18;;;;;;;16.80;1.65;;;;;;;12.25;100.00;101646.31;5051189;28;20037;-38
2023/01/06 11:07:49;;;;;;;9.18;1.85;;;;;;;11.88;100.00;101652.31;5052045;28;20037;-36
2023/01/06 11:10:42;;;;;;;12.85;1.63;;;;;;;11.78;100.00;101658.69;5051663;28;20025;-36
2023/01/06 11:13:28;;;;;;;15.40;1.30;;;;;;;11.57;100.00;101655.66;5029993;28;20068;-36
2023/01/06 11:15:54;;;;;;;17.40;1.58;;;;;;;11.56;100.00;101660.22;5052351;28;20029;-38
2023/01/06 11:18:24;;;;;;;15.32;1.55;;;;;;;11.28;100.00;101661.53;5052412;28;20587;-38
2023/01/06 11:21:15;;;;;;;15.68;1.30;;;;;;;10.88;100.00;101655.06;5052006;28;20037;-36
2023/01/06 11:23:42;;;;;;;12.65;1.42;;;;;;;10.89;100.00;101652.19;5052543;28;20174;-38
2023/01/06 11:26:15;;;;;;;11.83;1.30;;;;;;;10.81;100.00;101656.72;5050717;28;20033;-36
2023/01/06 11:28:42;;;;;;;13.13;1.20;;;;;;;10.86;100.00;101651.69;5050528;28;20035;-37
2023/01/06 11:31:14;;;;;;;14.48;1.60;;;;;;;10.96;100.00;101653.22;5051977;28;20032;-37
2023/01/06 11:33:51;;;;;;;11.35;1.35;;;;;;;11.17;100.00;101649.25;5051903;28;20396;-37